Time;durP1;ratioP1;P1;durP2;ratioP2;P2;SDS_P1;SDS_P2;PMS_P1;PMS_P2;Temp;Humidity;BMP_temperature;BMP_pressure;BME280_temperature;BME280_humidity;BME280_pressure;Samples;Min_cycle;Max_cycle;Signal;HPM_P1;HPM_P2
2022/10/06 00:02:08;;;;;;;1.48;0.65;;;14.50;47.10;;;;;;4950873;28;20219;-36
2022/10/06 00:04:39;;;;;;;1.02;0.65;;;14.50;47.10;;;;;;4925474;28;20205;-40
2022/10/06 00:07:09;;;;;;;2.15;0.60;;;14.50;47.10;;;;;;4924484;29;20220;-42
2022/10/06 00:09:40;;;;;;;1.42;0.80;;;14.50;47.10;;;;;;4935340;29;20204;-42
2022/10/06 00:12:12;;;;;;;0.95;0.70;;;14.50;47.10;;;;;;4935247;29;20231;-43
2022/10/06 00:14:42;;;;;;;1.60;0.70;;;14.60;47.10;;;;;;4951537;29;20210;-38
2022/10/06 00:17:15;;;;;;;0.82;0.50;;;14.60;47.00;;;;;;4954280;28;20210;-36
2022/10/06 00:19:46;;;;;;;1.02;0.93;;;14.60;47.00;;;;;;4954700;28;20207;-40
2022/10/06 00:22:16;;;;;;;1.05;0.70;;;14.60;47.00;;;;;;4954281;28;20597;-36
2022/10/06 00:24:47;;;;;;;1.30;0.88;;;14.60;47.00;;;;;;4954636;28;20206;-38
2022/10/06 00:27:18;;;;;;;0.57;0.50;;;14.70;47.00;;;;;;4954315;28;20223;-36
2022/10/06 00:29:49;;;;;;;0.80;0.70;;;14.70;47.00;;;;;;4953793;28;20902;-37
2022/10/06 00:32:22;;;;;;;1.25;0.80;;;14.70;47.00;;;;;;4954059;28;20261;-40
2022/10/06 00:34:53;;;;;;;1.00;0.68;;;14.70;47.00;;;;;;4939449;28;20200;-36
2022/10/06 00:37:24;;;;;;;1.00;0.60;;;14.70;47.00;;;;;;4929777;29;20662;-35
2022/10/06 00:39:54;;;;;;;0.77;0.60;;;14.80;47.10;;;;;;4935503;29;20200;-36
2022/10/06 00:42:27;;;;;;;1.33;0.70;;;14.80;47.10;;;;;;4935204;29;20216;-41
2022/10/06 00:44:59;;;;;;;1.48;0.70;;;14.80;47.00;;;;;;4952042;29;20203;-36
2022/10/06 00:47:33;;;;;;;0.80;0.73;;;14.90;47.00;;;;;;4953976;28;20225;-41
2022/10/06 00:50:05;;;;;;;1.08;0.70;;;14.90;47.00;;;;;;4954222;28;20627;-38
2022/10/06 00:52:36;;;;;;;1.85;0.60;;;14.90;47.00;;;;;;4954230;28;20223;-36
2022/10/06 00:55:08;;;;;;;0.50;0.50;;;15.00;47.00;;;;;;4916300;28;20207;-41
2022/10/06 00:57:39;;;;;;;0.65;0.50;;;15.00;46.90;;;;;;4916019;29;20303;-36
2022/10/06 01:00:11;;;;;;;0.85;0.63;;;15.00;46.90;;;;;;4936168;29;20215;-40
2022/10/06 01:02:48;;;;;;;0.82;0.65;;;15.00;46.90;;;;;;4934274;29;20228;-40
2022/10/06 01:05:28;;;;;;;0.93;0.60;;;15.00;46.90;;;;;;4934068;29;20223;-37
2022/10/06 01:07:59;;;;;;;0.77;0.70;;;15.10;46.90;;;;;;4920866;29;20691;-40
2022/10/06 01:10:30;;;;;;;0.60;0.50;;;15.10;46.90;;;;;;4915628;29;20575;-37
2022/10/06 01:13:01;;;;;;;0.60;0.60;;;15.10;46.90;;;;;;4915325;29;20220;-39
2022/10/06 01:15:32;;;;;;;0.82;0.60;;;15.10;46.90;;;;;;4915795;29;20208;-39
2022/10/06 01:18:12;;;;;;;0.93;0.50;;;15.20;46.80;;;;;;4915496;29;20773;-36
2022/10/06 01:20:48;;;;;;;1.50;0.70;;;15.20;46.70;;;;;;4914793;29;20338;-38
2022/10/06 01:23:21;;;;;;;0.70;0.70;;;15.20;46.70;;;;;;4915568;29;20216;-36
2022/10/06 01:25:52;;;;;;;1.05;0.60;;;15.20;46.60;;;;;;4918699;29;20214;-38
2022/10/06 01:28:23;;;;;;;0.90;0.60;;;15.20;46.60;;;;;;4935664;29;20294;-38
2022/10/06 01:30:55;;;;;;;0.60;0.43;;;15.30;46.60;;;;;;4953224;28;20206;-38
2022/10/06 01:33:26;;;;;;;0.77;0.50;;;15.30;46.60;;;;;;4945367;28;20215;-36
2022/10/06 01:35:57;;;;;;;0.77;0.70;;;15.30;46.70;;;;;;4933631;29;20203;-36
2022/10/06 01:38:30;;;;;;;1.63;0.57;;;15.30;46.70;;;;;;4933924;29;20204;-38
2022/10/06 01:41:00;;;;;;;0.88;0.57;;;15.30;46.60;;;;;;4933904;29;20204;-37
2022/10/06 01:43:32;;;;;;;0.55;0.47;;;15.30;46.60;;;;;;4935791;29;20220;-43
2022/10/06 01:46:02;;;;;;;0.90;0.60;;;15.30;46.60;;;;;;4953407;28;20598;-41
2022/10/06 01:48:36;;;;;;;1.08;0.70;;;15.40;46.60;;;;;;4953189;28;20230;-44
2022/10/06 01:51:07;;;;;;;1.00;0.60;;;15.40;46.70;;;;;;4941756;28;20211;-37
2022/10/06 01:53:40;;;;;;;1.42;0.40;;;15.40;46.60;;;;;;4914603;29;20440;-38
2022/10/06 01:56:10;;;;;;;0.80;0.50;;;15.50;46.70;;;;;;4914794;29;20293;-36
2022/10/06 01:58:41;;;;;;;0.60;0.40;;;15.50;46.50;;;;;;4920626;29;20204;-36
2022/10/06 02:01:12;;;;;;;1.40;0.60;;;15.50;46.50;;;;;;4914492;29;20204;-37
2022/10/06 02:03:43;;;;;;;0.85;0.60;;;15.50;46.50;;;;;;4914512;29;20696;-36
2022/10/06 02:06:14;;;;;;;0.95;0.55;;;15.50;46.50;;;;;;4918492;29;20212;-36
2022/10/06 02:08:46;;;;;;;0.50;0.50;;;15.60;46.60;;;;;;4933193;29;20743;-43
2022/10/06 02:11:18;;;;;;;0.60;0.60;;;15.60;46.60;;;;;;4932943;29;20207;-40
2022/10/06 02:13:49;;;;;;;0.50;0.50;;;15.60;46.60;;;;;;4935766;29;20191;-43
2022/10/06 02:16:20;;;;;;;1.17;0.55;;;15.60;46.60;;;;;;4952010;28;20203;-39
2022/10/06 02:18:51;;;;;;;1.17;0.40;;;15.70;46.60;;;;;;4952620;28;20199;-36
2022/10/06 02:21:23;;;;;;;0.80;0.60;;;15.70;46.60;;;;;;4952480;28;20205;-39
2022/10/06 02:23:56;;;;;;;1.00;0.70;;;15.70;46.50;;;;;;4952034;28;20209;-37
2022/10/06 02:26:27;;;;;;;0.60;0.43;;;15.70;46.50;;;;;;4952433;28;20209;-36
2022/10/06 02:28:58;;;;;;;1.02;0.40;;;15.70;47.10;;;;;;4951767;28;20256;-38
2022/10/06 02:31:28;;;;;;;1.75;0.60;;;15.80;46.60;;;;;;4944431;28;20212;-42
2022/10/06 02:33:59;;;;;;;1.05;0.50;;;15.80;46.60;;;;;;4914005;29;20544;-36
2022/10/06 02:36:30;;;;;;;0.90;0.60;;;15.80;46.60;;;;;;4920368;29;20226;-37
2022/10/06 02:39:02;;;;;;;0.77;0.43;;;15.80;46.60;;;;;;4931944;29;20195;-41
2022/10/06 02:41:33;;;;;;;1.00;0.60;;;15.80;46.60;;;;;;4927824;29;20599;-38
2022/10/06 02:44:04;;;;;;;0.57;0.47;;;15.90;46.70;;;;;;4935667;29;20206;-36
2022/10/06 02:46:35;;;;;;;0.65;0.60;;;15.90;46.70;;;;;;4952148;28;20209;-36
2022/10/06 02:49:05;;;;;;;0.40;0.40;;;15.90;46.70;;;;;;4930245;28;20240;-36
2022/10/06 02:51:37;;;;;;;0.40;0.40;;;15.90;46.70;;;;;;4913764;29;20684;-38
2022/10/06 02:54:09;;;;;;;0.70;0.60;;;15.90;46.60;;;;;;4913976;29;20204;-37
2022/10/06 02:56:40;;;;;;;1.88;0.60;;;15.90;46.50;;;;;;4919083;29;20559;-36
2022/10/06 02:59:10;;;;;;;0.40;0.40;;;15.90;46.50;;;;;;4928882;29;20204;-37
2022/10/06 03:01:41;;;;;;;0.80;0.65;;;15.90;46.50;;;;;;4951537;28;20626;-38
2022/10/06 03:04:12;;;;;;;0.50;0.47;;;16.00;46.50;;;;;;4936675;28;20195;-36
2022/10/06 03:06:43;;;;;;;0.70;0.60;;;16.00;46.40;;;;;;4932629;29;20203;-38
2022/10/06 03:09:16;;;;;;;1.48;0.70;;;16.00;46.50;;;;;;4924598;29;20224;-38
2022/10/06 03:11:47;;;;;;;0.60;0.60;;;16.00;46.50;;;;;;4932033;29;20224;-36
2022/10/06 03:14:17;;;;;;;0.50;0.50;;;16.00;46.60;;;;;;4935180;29;20640;-39
2022/10/06 03:16:49;;;;;;;0.98;0.50;;;16.00;46.60;;;;;;4929754;28;20204;-37
2022/10/06 03:19:20;;;;;;;0.88;0.63;;;16.00;46.60;;;;;;4913490;29;20299;-44
2022/10/06 03:21:51;;;;;;;0.57;0.50;;;16.10;46.70;;;;;;4912561;29;20235;-43
2022/10/06 03:24:23;;;;;;;0.82;0.40;;;16.10;46.60;;;;;;4913787;29;20211;-36
2022/10/06 03:26:54;;;;;;;1.10;0.73;;;16.00;46.60;;;;;;4913498;29;20208;-36
2022/10/06 03:29:25;;;;;;;0.65;0.40;;;16.10;46.60;;;;;;4919157;29;20232;-38
2022/10/06 03:31:56;;;;;;;0.68;0.50;;;16.10;46.50;;;;;;4951243;28;20223;-39
2022/10/06 03:34:29;;;;;;;0.80;0.50;;;16.10;46.50;;;;;;4951752;28;20210;-38
2022/10/06 03:37:02;;;;;;;0.82;0.60;;;16.10;46.50;;;;;;4940822;28;20299;-36
2022/10/06 03:39:34;;;;;;;1.20;0.65;;;16.10;46.50;;;;;;4931590;29;20208;-36
2022/10/06 03:42:05;;;;;;;0.90;0.50;;;16.10;46.50;;;;;;4932057;29;20220;-44
2022/10/06 03:44:36;;;;;;;0.65;0.50;;;16.10;46.60;;;;;;4939389;29;20570;-36
2022/10/06 03:47:07;;;;;;;1.05;0.70;;;16.20;46.60;;;;;;4928347;28;20219;-37
2022/10/06 03:49:37;;;;;;;0.40;0.40;;;16.20;46.70;;;;;;4916937;29;20234;-36
2022/10/06 03:52:08;;;;;;;0.98;0.75;;;16.20;46.70;;;;;;4916388;29;20220;-38
2022/10/06 03:54:41;;;;;;;2.33;0.68;;;16.20;46.70;;;;;;4916799;29;20208;-40
2022/10/06 03:57:12;;;;;;;1.85;0.40;;;16.20;46.60;;;;;;4917334;29;20220;-36
2022/10/06 03:59:42;;;;;;;0.95;0.50;;;16.20;46.70;;;;;;4924664;29;20198;-44
2022/10/06 04:02:13;;;;;;;1.08;0.70;;;16.20;46.60;;;;;;4954544;28;20223;-38
2022/10/06 04:04:44;;;;;;;0.43;0.43;;;16.20;46.60;;;;;;4954977;28;20206;-36
2022/10/06 04:07:14;;;;;;;0.47;0.40;;;16.20;46.60;;;;;;4942319;28;20212;-39
2022/10/06 04:09:47;;;;;;;0.55;0.50;;;16.20;46.60;;;;;;4935821;29;20227;-36
2022/10/06 04:12:18;;;;;;;0.50;0.50;;;16.20;46.60;;;;;;4935343;29;20231;-40
2022/10/06 04:14:48;;;;;;;0.60;0.50;;;16.20;46.50;;;;;;4938698;29;20191;-39
2022/10/06 04:17:19;;;;;;;0.95;0.50;;;16.20;46.60;;;;;;4954085;28;20562;-36
2022/10/06 04:19:50;;;;;;;0.60;0.60;;;16.20;46.60;;;;;;4954390;28;20210;-37
2022/10/06 04:22:20;;;;;;;0.50;0.35;;;16.30;46.70;;;;;;4954300;28;20244;-38
2022/10/06 04:24:53;;;;;;;0.47;0.47;;;16.30;46.80;;;;;;4933586;28;20209;-43
2022/10/06 04:27:29;;;;;;;0.93;0.60;;;16.30;46.80;;;;;;4916025;29;20297;-39
2022/10/06 04:30:00;;;;;;;0.60;0.60;;;16.30;46.90;;;;;;4924598;29;20230;-40
2022/10/06 04:32:31;;;;;;;1.05;0.60;;;16.30;46.80;;;;;;4930882;28;20267;-40
2022/10/06 04:35:02;;;;;;;0.63;0.50;;;16.30;46.80;;;;;;4916021;29;20200;-38
2022/10/06 04:37:32;;;;;;;0.43;0.43;;;16.30;46.80;;;;;;4931030;29;20250;-36
2022/10/06 04:40:05;;;;;;;0.68;0.60;;;16.30;46.70;;;;;;4935441;29;20230;-36
2022/10/06 04:42:36;;;;;;;0.60;0.40;;;16.30;46.70;;;;;;4935224;29;20219;-44
2022/10/06 04:45:07;;;;;;;0.40;0.40;;;16.40;46.70;;;;;;4940477;29;20565;-36
2022/10/06 04:47:39;;;;;;;0.75;0.60;;;16.40;46.60;;;;;;4954416;28;20258;-43
2022/10/06 04:50:10;;;;;;;1.08;0.60;;;16.40;46.60;;;;;;4954329;28;20230;-36
2022/10/06 04:52:40;;;;;;;0.50;0.50;;;16.40;46.60;;;;;;4954182;28;20297;-46
2022/10/06 04:55:13;;;;;;;0.47;0.47;;;16.40;46.70;;;;;;4945845;28;20203;-40
2022/10/06 04:57:44;;;;;;;1.02;0.60;;;16.40;46.80;;;;;;4935157;29;20199;-37
2022/10/06 05:00:24;;;;;;;0.85;0.57;;;16.40;46.80;;;;;;4934229;29;20211;-36
2022/10/06 05:02:56;;;;;;;0.43;0.43;;;16.40;46.80;;;;;;4934802;29;20230;-38
2022/10/06 05:05:31;;;;;;;0.73;0.57;;;16.40;46.70;;;;;;4934616;29;20199;-36
2022/10/06 05:08:01;;;;;;;2.35;0.50;;;16.40;46.80;;;;;;4934895;29;20686;-35
2022/10/06 05:10:34;;;;;;;0.75;0.60;;;16.40;46.80;;;;;;4934967;29;20231;-37
2022/10/06 05:13:04;;;;;;;0.70;0.60;;;16.50;46.90;;;;;;4934739;29;20211;-38
2022/10/06 05:15:35;;;;;;;0.50;0.50;;;16.40;46.80;;;;;;4941360;29;20233;-36
2022/10/06 05:18:06;;;;;;;0.68;0.57;;;16.40;46.70;;;;;;4953264;28;20203;-36
2022/10/06 05:20:37;;;;;;;0.57;0.50;;;16.50;46.80;;;;;;4953943;28;20206;-36
2022/10/06 05:23:10;;;;;;;0.50;0.50;;;16.50;46.70;;;;;;4953814;28;20214;-38
2022/10/06 05:25:51;;;;;;;1.17;0.60;;;16.50;46.70;;;;;;4953839;28;20884;-40
2022/10/06 05:28:22;;;;;;;0.80;0.73;;;16.50;46.80;;;;;;4953331;28;20203;-36
2022/10/06 05:31:00;;;;;;;0.90;0.70;;;16.50;46.70;;;;;;4952845;28;20230;-36
2022/10/06 05:33:33;;;;;;;0.52;0.52;;;16.50;46.70;;;;;;4953075;28;20219;-38
2022/10/06 05:36:05;;;;;;;0.80;0.65;;;16.50;46.70;;;;;;4950139;28;20203;-36
2022/10/06 05:38:36;;;;;;;0.52;0.43;;;16.50;46.70;;;;;;4933749;29;20207;-36
2022/10/06 05:41:11;;;;;;;0.68;0.57;;;16.50;46.70;;;;;;4933732;29;20657;-36
2022/10/06 05:43:45;;;;;;;0.50;0.50;;;16.40;46.60;;;;;;4933723;29;20226;-38
2022/10/06 05:46:19;;;;;;;0.68;0.52;;;16.50;46.60;;;;;;4944875;29;20217;-36
2022/10/06 05:48:50;;;;;;;1.02;0.60;;;16.50;46.70;;;;;;4952849;28;20203;-42
2022/10/06 05:51:21;;;;;;;0.65;0.60;;;16.50;46.60;;;;;;4952973;28;20651;-43
2022/10/06 05:53:52;;;;;;;1.67;0.70;;;16.50;46.60;;;;;;4952590;28;20195;-36
2022/10/06 05:56:26;;;;;;;0.80;0.60;;;16.50;46.60;;;;;;4952441;28;20203;-36
2022/10/06 05:58:58;;;;;;;1.02;0.57;;;16.50;46.50;;;;;;4952806;28;20195;-40
2022/10/06 06:01:30;;;;;;;0.70;0.70;;;16.50;46.50;;;;;;4952063;28;20210;-40
2022/10/06 06:04:01;;;;;;;0.75;0.55;;;16.50;46.40;;;;;;4952477;28;20282;-41
2022/10/06 06:06:33;;;;;;;0.77;0.60;;;16.50;46.40;;;;;;4945491;28;20226;-36
2022/10/06 06:09:07;;;;;;;0.63;0.63;;;16.40;46.30;;;;;;4932993;29;20588;-38
2022/10/06 06:11:41;;;;;;;0.60;0.60;;;16.40;46.30;;;;;;4933482;29;20200;-37
2022/10/06 06:14:13;;;;;;;0.90;0.70;;;16.40;46.30;;;;;;4933415;29;20284;-36
2022/10/06 06:16:43;;;;;;;1.00;0.63;;;16.40;46.30;;;;;;4945977;29;20729;-36
2022/10/06 06:19:15;;;;;;;0.60;0.60;;;16.40;46.30;;;;;;4952099;28;20203;-36
2022/10/06 06:21:45;;;;;;;0.80;0.80;;;16.40;46.30;;;;;;4951972;28;20219;-38
2022/10/06 06:24:16;;;;;;;0.55;0.50;;;16.40;46.30;;;;;;4952534;28;20202;-35
2022/10/06 06:26:49;;;;;;;1.35;0.70;;;16.40;46.30;;;;;;4952426;28;20198;-36
2022/10/06 06:29:19;;;;;;;0.88;0.75;;;16.40;46.20;;;;;;4952346;28;20233;-35
2022/10/06 06:31:50;;;;;;;1.05;0.80;;;16.40;46.20;;;;;;4951677;28;20222;-38
2022/10/06 06:34:21;;;;;;;1.42;0.60;;;16.40;46.20;;;;;;4952096;28;20210;-36
2022/10/06 06:36:54;;;;;;;0.82;0.80;;;16.40;46.10;;;;;;4942205;28;20211;-36
2022/10/06 06:39:24;;;;;;;1.08;0.68;;;16.40;46.80;;;;;;4932894;29;20203;-36
2022/10/06 06:42:00;;;;;;;0.82;0.60;;;16.30;46.10;;;;;;4932991;29;20224;-41
2022/10/06 06:44:31;;;;;;;1.20;1.08;;;16.30;46.10;;;;;;4933643;29;20731;-36
2022/10/06 06:47:02;;;;;;;1.17;0.98;;;16.30;46.10;;;;;;4934686;29;20234;-37
2022/10/06 06:49:33;;;;;;;0.60;0.60;;;16.30;46.20;;;;;;4932456;29;20238;-36
2022/10/06 06:52:04;;;;;;;1.75;0.90;;;16.30;46.20;;;;;;4932514;29;20228;-36
2022/10/06 06:54:34;;;;;;;0.95;0.85;;;16.20;46.20;;;;;;4932221;29;20203;-39
2022/10/06 06:57:08;;;;;;;0.95;0.77;;;16.30;46.20;;;;;;4931072;29;20211;-36
2022/10/06 06:59:39;;;;;;;1.02;0.93;;;16.30;46.20;;;;;;4932884;29;20668;-36
2022/10/06 07:02:11;;;;;;;0.80;0.70;;;16.30;46.20;;;;;;4946793;28;20439;-36
2022/10/06 07:04:42;;;;;;;0.98;0.85;;;16.30;46.20;;;;;;4951685;28;20254;-36
2022/10/06 07:07:14;;;;;;;1.10;0.85;;;16.20;46.10;;;;;;4939186;28;20671;-36
2022/10/06 07:09:45;;;;;;;1.70;0.90;;;16.20;46.10;;;;;;4932192;29;20235;-36
2022/10/06 07:12:17;;;;;;;0.85;0.82;;;16.20;46.10;;;;;;4932619;29;20227;-36
2022/10/06 07:25:56;;;;;;;1.95;0.85;;;16.20;46.30;;;;;;4951782;29;20255;-37
2022/10/06 07:28:29;;;;;;;0.60;0.60;;;16.10;46.30;;;;;;4951665;28;20234;-37
2022/10/06 07:31:01;;;;;;;1.13;0.82;;;16.10;46.30;;;;;;4950911;28;20233;-37
2022/10/06 07:33:32;;;;;;;1.00;0.90;;;16.10;46.40;;;;;;4951208;28;20219;-41
2022/10/06 07:36:03;;;;;;;1.98;0.82;;;16.10;46.40;;;;;;4948545;28;20200;-40
2022/10/06 07:38:35;;;;;;;0.70;0.70;;;16.10;46.40;;;;;;4931775;29;20192;-37
2022/10/06 07:41:05;;;;;;;1.08;0.90;;;16.10;46.40;;;;;;4931961;29;20648;-37
2022/10/06 07:43:38;;;;;;;1.02;0.80;;;16.10;46.40;;;;;;4931884;29;20215;-44
2022/10/06 07:46:12;;;;;;;1.13;0.82;;;16.10;46.50;;;;;;4935785;29;20199;-37
2022/10/06 07:48:45;;;;;;;0.95;0.95;;;16.10;46.40;;;;;;4933749;28;20254;-37
2022/10/06 07:51:17;;;;;;;1.52;0.80;;;16.00;46.40;;;;;;4932313;29;20326;-37
2022/10/06 07:53:50;;;;;;;1.00;0.90;;;16.00;46.40;;;;;;4932305;29;20191;-42
2022/10/06 07:56:21;;;;;;;1.08;0.90;;;16.00;46.50;;;;;;4932259;29;20742;-42
2022/10/06 07:58:54;;;;;;;0.80;0.80;;;16.00;46.60;;;;;;4932223;29;20203;-37
2022/10/06 08:01:28;;;;;;;1.00;0.85;;;16.00;46.60;;;;;;4937218;28;20253;-38
2022/10/06 08:03:59;;;;;;;0.88;0.80;;;16.00;46.60;;;;;;4950938;28;20254;-39
2022/10/06 08:06:29;;;;;;;1.10;0.80;;;16.00;46.70;;;;;;4944366;28;20214;-37
2022/10/06 08:09:00;;;;;;;0.82;0.82;;;16.00;46.70;;;;;;4931911;29;20214;-38
2022/10/06 08:11:31;;;;;;;1.60;0.80;;;16.00;46.70;;;;;;4932163;29;20347;-37
2022/10/06 08:14:05;;;;;;;0.90;0.88;;;16.00;46.70;;;;;;4931928;29;20210;-39
2022/10/06 08:16:35;;;;;;;0.80;0.80;;;15.90;46.60;;;;;;4938218;29;20201;-37
2022/10/06 08:19:06;;;;;;;1.10;1.00;;;15.90;46.60;;;;;;4951029;28;20210;-38
2022/10/06 08:21:38;;;;;;;1.02;0.90;;;15.90;46.60;;;;;;4951142;28;20209;-37
2022/10/06 08:24:09;;;;;;;1.25;0.88;;;15.90;46.70;;;;;;4951752;28;20238;-37
2022/10/06 08:26:40;;;;;;;1.55;1.00;;;15.90;46.80;;;;;;4951271;28;20203;-37
2022/10/06 08:32:00;;;;;;;1.10;0.90;;;15.80;46.80;;;;;;4954235;28;20222;-37
2022/10/06 08:34:31;;;;;;;0.80;0.80;;;15.90;46.90;;;;;;4953934;28;20209;-38
2022/10/06 08:37:02;;;;;;;1.42;0.90;;;15.80;46.90;;;;;;4943017;28;20648;-38
2022/10/06 08:39:32;;;;;;;1.30;1.20;;;15.80;46.90;;;;;;4934946;29;20247;-43
2022/10/06 08:42:03;;;;;;;1.55;1.23;;;15.80;46.90;;;;;;4935247;29;20215;-40
2022/10/06 08:44:40;;;;;;;1.40;1.25;;;15.80;46.90;;;;;;4934556;29;20206;-40
2022/10/06 08:47:17;;;;;;;2.60;1.55;;;15.80;46.90;;;;;;4935458;29;20202;-39
2022/10/06 08:49:49;;;;;;;2.40;1.30;;;15.80;46.90;;;;;;4933954;29;20408;-37
2022/10/06 08:52:45;;;;;;;1.50;1.20;;;15.80;47.00;;;;;;4934215;29;20227;-37
2022/10/06 08:55:34;;;;;;;1.77;1.20;;;15.70;47.00;;;;;;4934893;29;20630;-37
2022/10/06 08:58:27;;;;;;;1.58;1.20;;;15.70;47.00;;;;;;4934861;29;20668;-41
2022/10/06 09:01:11;;;;;;;1.52;1.10;;;15.70;47.10;;;;;;4934957;29;20204;-37
2022/10/06 09:03:42;;;;;;;2.08;1.40;;;15.70;47.10;;;;;;4915655;29;20226;-45
2022/10/06 09:06:22;;;;;;;2.38;1.50;;;15.70;49.30;;;;;;4920318;29;20211;-40
2022/10/06 09:08:55;;;;;;;3.42;1.48;;;15.80;52.60;;;;;;4932478;29;20715;-50
2022/10/06 09:11:46;;;;;;;3.17;1.67;;;15.90;52.20;;;;;;4932481;29;20242;-37
2022/10/06 09:14:23;;;;;;;2.08;1.40;;;16.00;51.80;;;;;;4934738;29;20212;-37
2022/10/06 09:16:59;;;;;;;1.23;1.13;;;16.00;51.30;;;;;;4918581;29;20283;-37
2022/10/06 09:19:39;;;;;;;2.92;1.23;;;16.00;51.10;;;;;;4915838;29;20649;-38
2022/10/06 09:22:18;;;;;;;2.45;1.58;;;16.10;51.00;;;;;;4916417;29;20212;-40
2022/10/06 09:24:50;;;;;;;1.95;1.30;;;16.00;50.90;;;;;;4916945;29;20268;-42
2022/10/06 09:27:23;;;;;;;1.45;1.35;;;16.00;50.70;;;;;;4919773;29;20192;-41
2022/10/06 09:29:54;;;;;;;3.25;1.50;;;16.00;50.60;;;;;;4935428;29;20207;-39
2022/10/06 09:32:30;;;;;;;2.35;1.60;;;15.90;50.40;;;;;;4934775;29;20220;-42
2022/10/06 09:35:03;;;;;;;2.88;1.42;;;15.90;50.40;;;;;;4931166;29;20203;-37
2022/10/06 09:37:55;;;;;;;3.17;1.63;;;15.90;50.20;;;;;;4930047;29;20231;-39
2022/10/06 09:40:40;;;;;;;2.85;1.27;;;15.80;50.20;;;;;;4935004;29;20572;-37
2022/10/06 09:43:21;;;;;;;1.75;1.38;;;15.80;50.10;;;;;;4934561;29;20219;-37
2022/10/06 09:45:53;;;;;;;1.77;1.45;;;15.80;50.00;;;;;;4935175;29;20195;-40
2022/10/06 09:48:27;;;;;;;2.55;1.42;;;15.80;49.90;;;;;;4933943;29;20195;-37
2022/10/06 09:51:14;;;;;;;2.63;1.50;;;15.70;49.80;;;;;;4934679;29;20259;-43
2022/10/06 09:53:45;;;;;;;1.98;1.20;;;15.70;49.70;;;;;;4934708;29;20223;-38
2022/10/06 09:56:18;;;;;;;1.33;1.20;;;15.70;49.70;;;;;;4934829;29;20206;-37
2022/10/06 09:59:00;;;;;;;1.75;1.38;;;15.70;49.70;;;;;;4934908;29;20258;-45
2022/10/06 10:01:32;;;;;;;1.40;1.30;;;15.60;49.60;;;;;;4933819;29;20282;-42
2022/10/06 10:04:13;;;;;;;2.10;1.38;;;15.60;49.60;;;;;;4929636;29;20200;-40
2022/10/06 10:06:44;;;;;;;2.50;1.20;;;15.60;49.60;;;;;;4921730;29;20207;-42
2022/10/06 10:09:31;;;;;;;3.17;1.38;;;15.60;49.50;;;;;;4915599;29;20204;-36
2022/10/06 10:12:30;;;;;;;1.83;1.20;;;15.50;49.50;;;;;;4914659;29;20287;-37
2022/10/06 10:15:04;;;;;;;1.60;1.30;;;15.50;49.50;;;;;;4916332;29;20200;-48
2022/10/06 10:17:49;;;;;;;1.80;1.33;;;15.50;49.50;;;;;;4925119;29;20660;-38
2022/10/06 10:20:33;;;;;;;2.25;1.20;;;15.40;49.40;;;;;;4915808;29;20219;-37
2022/10/06 10:23:08;;;;;;;2.35;1.50;;;15.50;49.50;;;;;;4915431;29;20272;-46
2022/10/06 10:25:49;;;;;;;2.42;1.30;;;15.40;49.40;;;;;;4915162;29;20196;-42
2022/10/06 10:29:00;;;;;;;2.13;1.40;;;15.40;49.40;;;;;;4914648;29;20196;-36
2022/10/06 10:31:40;;;;;;;1.27;1.17;;;15.40;49.40;;;;;;4905876;29;20569;-35
2022/10/06 10:34:19;;;;;;;1.73;1.20;;;15.40;49.30;;;;;;4914864;29;20227;-35
2022/10/06 10:36:57;;;;;;;1.73;1.27;;;15.40;49.30;;;;;;4925440;29;20206;-36
2022/10/06 10:39:35;;;;;;;1.38;1.20;;;15.40;49.40;;;;;;4933451;29;20199;-37
2022/10/06 10:42:12;;;;;;;1.45;1.30;;;15.30;49.30;;;;;;4933580;29;20211;-37
2022/10/06 10:44:49;;;;;;;2.33;1.30;;;15.30;49.40;;;;;;4932905;29;20828;-38
2022/10/06 10:47:25;;;;;;;1.70;1.15;;;15.30;49.30;;;;;;4934335;29;20195;-35
2022/10/06 10:50:04;;;;;;;1.55;1.30;;;15.20;49.30;;;;;;4932994;29;20234;-38
2022/10/06 10:52:40;;;;;;;1.65;1.40;;;15.20;49.30;;;;;;4917065;29;20223;-36
2022/10/06 10:55:25;;;;;;;1.70;1.42;;;15.20;49.30;;;;;;4914706;29;20200;-38
2022/10/06 10:57:58;;;;;;;2.38;1.38;;;15.20;49.70;;;;;;4914940;29;20202;-36
2022/10/06 11:00:34;;;;;;;2.50;1.70;;;15.20;49.20;;;;;;4914497;29;20212;-38
2022/10/06 11:03:05;;;;;;;1.73;1.50;;;15.20;49.20;;;;;;4915070;29;20282;-37
2022/10/06 11:06:13;;;;;;;2.17;1.17;;;15.20;49.20;;;;;;4931465;29;20195;-37
2022/10/06 11:08:53;;;;;;;1.95;1.58;;;15.20;49.20;;;;;;4914457;29;20200;-38
2022/10/06 11:11:38;;;;;;;2.08;1.50;;;15.10;49.20;;;;;;4914891;29;20316;-36
2022/10/06 11:14:21;;;;;;;2.15;1.65;;;15.10;49.20;;;;;;4913811;29;20264;-37
2022/10/06 11:17:00;;;;;;;1.98;1.30;;;15.10;49.20;;;;;;4913412;29;20200;-39
2022/10/06 11:19:44;;;;;;;2.28;1.67;;;15.10;49.20;;;;;;4913354;29;20222;-39
2022/10/06 11:22:20;;;;;;;2.13;1.73;;;15.10;49.20;;;;;;4918908;29;20224;-37
2022/10/06 11:25:04;;;;;;;1.90;1.40;;;15.00;49.20;;;;;;4951859;28;20202;-36
2022/10/06 11:27:43;;;;;;;1.98;1.25;;;15.00;49.20;;;;;;4951370;28;20198;-39
2022/10/06 11:30:18;;;;;;;2.47;1.50;;;15.00;49.20;;;;;;4951712;28;20204;-37
2022/10/06 11:33:01;;;;;;;2.53;1.63;;;15.00;49.20;;;;;;4951584;28;20687;-37
2022/10/06 11:35:36;;;;;;;1.40;1.10;;;15.00;49.10;;;;;;4951950;28;20198;-43
2022/10/06 11:38:13;;;;;;;2.70;1.55;;;15.00;49.10;;;;;;4930971;29;20202;-36
2022/10/06 11:41:08;;;;;;;2.15;1.45;;;15.00;49.10;;;;;;4951800;28;20209;-37
2022/10/06 11:43:47;;;;;;;1.63;1.40;;;15.00;49.10;;;;;;4951354;28;20309;-42
2022/10/06 11:46:34;;;;;;;1.63;1.38;;;15.00;49.10;;;;;;4951550;28;20682;-37
2022/10/06 11:49:39;;;;;;;1.73;1.27;;;14.90;49.00;;;;;;4952034;28;20205;-36
2022/10/06 11:52:43;;;;;;;1.88;1.40;;;14.90;49.00;;;;;;4943922;28;20614;-37
2022/10/06 11:55:19;;;;;;;1.83;1.10;;;14.90;49.00;;;;;;4951538;28;20205;-42
2022/10/06 11:58:12;;;;;;;1.63;1.38;;;14.90;49.00;;;;;;4951607;28;20198;-37
2022/10/06 12:00:48;;;;;;;1.70;1.52;;;14.90;49.10;;;;;;4947079;28;20210;-38
2022/10/06 12:03:55;;;;;;;1.60;1.20;;;14.90;49.10;;;;;;4951303;28;20225;-36
2022/10/06 12:07:00;;;;;;;2.17;1.48;;;14.80;49.10;;;;;;4949113;28;20206;-36
2022/10/06 12:09:49;;;;;;;2.95;1.73;;;14.90;49.10;;;;;;4954083;29;20258;-38
2022/10/06 12:12:47;;;;;;;2.17;1.50;;;14.90;49.00;;;;;;4954999;28;20227;-37
2022/10/06 12:15:50;;;;;;;2.38;1.70;;;14.90;49.00;;;;;;4954995;28;20202;-39
2022/10/06 12:18:49;;;;;;;1.63;1.38;;;14.80;48.90;;;;;;4954209;28;20202;-41
2022/10/06 12:21:36;;;;;;;2.20;1.63;;;14.80;48.90;;;;;;4951508;28;20199;-44
2022/10/06 12:24:21;;;;;;;2.55;1.50;;;14.80;48.90;;;;;;4954459;28;20246;-40
2022/10/06 12:27:00;;;;;;;2.42;1.45;;;14.80;48.90;;;;;;4939589;28;20196;-42
2022/10/06 12:29:41;;;;;;;2.65;1.73;;;14.70;49.00;;;;;;4916420;29;20203;-45
2022/10/06 12:32:31;;;;;;;1.77;1.50;;;14.70;49.00;;;;;;4916098;29;20243;-37
2022/10/06 12:35:15;;;;;;;2.50;1.40;;;14.70;49.00;;;;;;4916157;29;20207;-49
2022/10/06 12:37:48;;;;;;;2.80;1.70;;;14.70;49.00;;;;;;4934803;29;20199;-38
2022/10/06 12:40:47;;;;;;;2.67;1.50;;;14.70;49.00;;;;;;4954416;28;20230;-40
2022/10/06 12:43:49;;;;;;;2.85;1.38;;;14.70;49.00;;;;;;4954759;28;20691;-36
2022/10/06 12:46:27;;;;;;;1.88;1.60;;;14.70;48.90;;;;;;4954531;28;20229;-38
2022/10/06 12:49:34;;;;;;;2.38;1.20;;;14.70;49.40;;;;;;4954860;28;20198;-40
2022/10/06 12:52:16;;;;;;;2.05;1.52;;;14.70;48.90;;;;;;4948401;28;20226;-38
2022/10/06 12:54:54;;;;;;;1.88;1.50;;;14.60;48.90;;;;;;4934981;29;20262;-45
2022/10/06 12:57:29;;;;;;;2.40;1.60;;;14.70;48.90;;;;;;4934844;29;20199;-38
2022/10/06 13:00:03;;;;;;;2.17;1.80;;;14.60;48.80;;;;;;4934824;29;20243;-42
2022/10/06 13:02:34;;;;;;;2.50;1.60;;;14.60;48.90;;;;;;4934979;29;20220;-44
2022/10/06 13:05:13;;;;;;;2.80;1.50;;;14.60;48.90;;;;;;4934497;29;20203;-36
2022/10/06 13:07:59;;;;;;;2.80;1.50;;;14.60;48.90;;;;;;4935472;29;20204;-41
2022/10/06 13:10:31;;;;;;;2.75;1.52;;;14.50;48.90;;;;;;4954251;28;20201;-36
2022/10/06 13:13:02;;;;;;;1.92;1.63;;;14.50;48.90;;;;;;4953489;28;20231;-44
2022/10/06 13:15:34;;;;;;;1.75;1.30;;;14.50;48.90;;;;;;4952853;28;20218;-39
2022/10/06 13:18:12;;;;;;;2.25;1.40;;;14.50;48.90;;;;;;4953827;28;20198;-39
2022/10/06 13:20:49;;;;;;;2.80;1.60;;;14.50;48.80;;;;;;4953514;28;20203;-36
2022/10/06 13:23:25;;;;;;;2.38;1.50;;;14.50;48.80;;;;;;4953035;28;20222;-41
2022/10/06 13:25:58;;;;;;;1.85;1.35;;;14.50;48.80;;;;;;4953480;28;20557;-36
2022/10/06 13:28:46;;;;;;;2.05;1.52;;;14.50;48.80;;;;;;4953111;28;20202;-38
2022/10/06 13:31:22;;;;;;;2.20;1.38;;;14.50;48.80;;;;;;4952929;28;20569;-36
2022/10/06 13:33:56;;;;;;;2.45;1.40;;;14.50;48.80;;;;;;4953426;28;20642;-36
2022/10/06 13:36:31;;;;;;;2.67;1.30;;;14.50;48.80;;;;;;4947187;28;20928;-43
2022/10/06 13:39:02;;;;;;;2.63;1.63;;;14.50;48.80;;;;;;4943674;29;20198;-44
2022/10/06 13:41:35;;;;;;;2.53;1.20;;;14.40;48.80;;;;;;4953079;28;20203;-36
2022/10/06 13:44:20;;;;;;;1.50;1.30;;;14.40;48.80;;;;;;4931418;28;20203;-37